CheckWX is a tool to help pilots better visualize weather data.  It is not intended as a substitute for an official pre-flight weather briefing.

21:45:37 UTC

KGPM METAR
Grand Prairie Municipal Airport Airport
Grand Prairie, TX, USA
Current

56 mins ago

KGPM 102050Z 06008KT 10SM SKC 34/22 A3005
Observed
Jul-10 @ 20:50 UTC
Wind
  • 060° at 8 KTS
Visibility
10 SM
Flight Rules
VFR
Cloud Levels
  • Clear skies
Temperature
34°C / 93°F
Dewpoint
22°C / 72°F
Humidity
49%
Altimeter
30.05" Hg
Pressure
1017.62 hPa
Previous

2 hours ago

KGPM 101950Z 11004KT 10SM SKC 33/21 A3006
Observed
Jul-10 @ 19:50 UTC
Wind
  • 110° at 4 KTS
Visibility
10 SM
Flight Rules
VFR
Cloud Levels
  • Clear skies
Temperature
33°C / 91°F
Dewpoint
21°C / 70°F
Humidity
49%
Altimeter
30.06" Hg
Pressure
1017.92 hPa
Previous

3 hours ago

KGPM 101850Z 11004KT 10SM SKC 33/21 A3005
Observed
Jul-10 @ 18:50 UTC
Wind
  • 110° at 4 KTS
Visibility
10 SM
Flight Rules
VFR
Cloud Levels
  • Clear skies
Temperature
33°C / 91°F
Dewpoint
21°C / 70°F
Humidity
49%
Altimeter
30.05" Hg
Pressure
1017.62 hPa